sensor_id;sensor_type;location;lat;lon;timestamp;P1;durP1;ratioP1;P2;durP2;ratioP2
10416;SDS011;62605;49.432;8.680;2022-08-03T00:00:57;1.85;;;1.27;;
10416;SDS011;62605;49.432;8.680;2022-08-03T00:03:24;1.75;;;1.58;;
10416;SDS011;62605;49.432;8.680;2022-08-03T00:05:51;1.52;;;1.33;;
10416;SDS011;62605;49.432;8.680;2022-08-03T00:08:20;2.13;;;1.42;;
10416;SDS011;62605;49.432;8.680;2022-08-03T00:10:47;1.70;;;1.60;;
10416;SDS011;62605;49.432;8.680;2022-08-03T00:13:14;1.90;;;1.80;;
10416;SDS011;62605;49.432;8.680;2022-08-03T00:15:43;1.60;;;1.38;;
10416;SDS011;62605;49.432;8.680;2022-08-03T00:18:10;2.35;;;1.52;;
10416;SDS011;62605;49.432;8.680;2022-08-03T00:20:37;1.40;;;1.30;;
10416;SDS011;62605;49.432;8.680;2022-08-03T00:23:04;2.08;;;1.50;;
10416;SDS011;62605;49.432;8.680;2022-08-03T00:25:34;2.42;;;1.50;;
10416;SDS011;62605;49.432;8.680;2022-08-03T00:28:01;2.35;;;1.80;;
10416;SDS011;62605;49.432;8.680;2022-08-03T00:30:29;1.45;;;1.30;;
10416;SDS011;62605;49.432;8.680;2022-08-03T00:32:57;1.60;;;1.50;;
10416;SDS011;62605;49.432;8.680;2022-08-03T00:35:24;2.47;;;1.88;;
10416;SDS011;62605;49.432;8.680;2022-08-03T00:37:52;1.50;;;1.35;;
10416;SDS011;62605;49.432;8.680;2022-08-03T00:40:19;1.30;;;1.20;;
10416;SDS011;62605;49.432;8.680;2022-08-03T00:42:51;1.90;;;1.20;;
10416;SDS011;62605;49.432;8.680;2022-08-03T00:45:20;1.20;;;1.13;;
10416;SDS011;62605;49.432;8.680;2022-08-03T00:47:49;2.00;;;1.30;;
10416;SDS011;62605;49.432;8.680;2022-08-03T00:50:16;1.40;;;1.27;;
10416;SDS011;62605;49.432;8.680;2022-08-03T00:52:47;2.75;;;1.40;;
10416;SDS011;62605;49.432;8.680;2022-08-03T00:55:15;1.45;;;1.35;;
10416;SDS011;62605;49.432;8.680;2022-08-03T00:57:43;1.30;;;1.20;;
10416;SDS011;62605;49.432;8.680;2022-08-03T01:00:13;1.92;;;1.52;;
10416;SDS011;62605;49.432;8.680;2022-08-03T01:02:41;1.30;;;1.20;;
10416;SDS011;62605;49.432;8.680;2022-08-03T01:05:08;1.70;;;1.58;;
10416;SDS011;62605;49.432;8.680;2022-08-03T01:07:40;1.27;;;1.17;;
10416;SDS011;62605;49.432;8.680;2022-08-03T01:10:16;1.50;;;1.40;;
10416;SDS011;62605;49.432;8.680;2022-08-03T01:12:51;2.97;;;1.40;;
10416;SDS011;62605;49.432;8.680;2022-08-03T01:15:27;1.23;;;1.13;;
10416;SDS011;62605;49.432;8.680;2022-08-03T01:17:58;1.10;;;1.10;;
10416;SDS011;62605;49.432;8.680;2022-08-03T01:20:31;4.53;;;1.35;;
10416;SDS011;62605;49.432;8.680;2022-08-03T01:26:08;1.45;;;1.15;;
10416;SDS011;62605;49.432;8.680;2022-08-03T01:28:57;1.48;;;1.38;;
10416;SDS011;62605;49.432;8.680;2022-08-03T01:31:35;1.25;;;1.15;;
10416;SDS011;62605;49.432;8.680;2022-08-03T01:34:08;2.00;;;1.20;;
10416;SDS011;62605;49.432;8.680;2022-08-03T01:36:39;1.80;;;1.35;;
10416;SDS011;62605;49.432;8.680;2022-08-03T01:39:11;1.38;;;1.27;;
10416;SDS011;62605;49.432;8.680;2022-08-03T01:41:41;1.60;;;1.50;;
10416;SDS011;62605;49.432;8.680;2022-08-03T01:44:13;1.50;;;1.40;;
10416;SDS011;62605;49.432;8.680;2022-08-03T01:46:42;2.00;;;1.42;;
10416;SDS011;62605;49.432;8.680;2022-08-03T01:49:13;2.22;;;1.70;;
10416;SDS011;62605;49.432;8.680;2022-08-03T01:51:41;3.00;;;1.33;;
10416;SDS011;62605;49.432;8.680;2022-08-03T01:54:10;2.03;;;1.58;;
10416;SDS011;62605;49.432;8.680;2022-08-03T01:56:42;1.55;;;1.45;;
10416;SDS011;62605;49.432;8.680;2022-08-03T01:59:10;2.22;;;1.45;;
10416;SDS011;62605;49.432;8.680;2022-08-03T02:01:42;1.30;;;1.20;;
10416;SDS011;62605;49.432;8.680;2022-08-03T02:04:10;1.40;;;1.30;;
10416;SDS011;62605;49.432;8.680;2022-08-03T02:06:39;3.45;;;1.23;;
10416;SDS011;62605;49.432;8.680;2022-08-03T02:09:08;3.67;;;1.83;;
10416;SDS011;62605;49.432;8.680;2022-08-03T02:11:35;1.55;;;1.27;;
10416;SDS011;62605;49.432;8.680;2022-08-03T02:14:04;1.70;;;1.60;;
10416;SDS011;62605;49.432;8.680;2022-08-03T02:16:32;1.60;;;1.50;;
10416;SDS011;62605;49.432;8.680;2022-08-03T02:19:03;1.58;;;1.48;;
10416;SDS011;62605;49.432;8.680;2022-08-03T02:21:31;2.80;;;1.50;;
10416;SDS011;62605;49.432;8.680;2022-08-03T02:24:02;2.85;;;1.55;;
10416;SDS011;62605;49.432;8.680;2022-08-03T02:26:30;4.00;;;1.60;;
10416;SDS011;62605;49.432;8.680;2022-08-03T02:29:06;1.70;;;1.60;;
10416;SDS011;62605;49.432;8.680;2022-08-03T02:31:37;2.58;;;1.65;;
10416;SDS011;62605;49.432;8.680;2022-08-03T02:34:10;1.65;;;1.55;;
10416;SDS011;62605;49.432;8.680;2022-08-03T02:36:39;1.60;;;1.50;;
10416;SDS011;62605;49.432;8.680;2022-08-03T02:39:10;1.92;;;1.73;;
10416;SDS011;62605;49.432;8.680;2022-08-03T02:41:41;1.40;;;1.30;;
10416;SDS011;62605;49.432;8.680;2022-08-03T02:44:12;1.30;;;1.20;;
10416;SDS011;62605;49.432;8.680;2022-08-03T02:46:40;1.42;;;1.33;;
10416;SDS011;62605;49.432;8.680;2022-08-03T02:49:12;1.30;;;1.20;;
10416;SDS011;62605;49.432;8.680;2022-08-03T02:51:43;1.92;;;1.40;;
10416;SDS011;62605;49.432;8.680;2022-08-03T02:54:13;1.65;;;1.55;;
10416;SDS011;62605;49.432;8.680;2022-08-03T02:56:43;1.30;;;1.20;;
10416;SDS011;62605;49.432;8.680;2022-08-03T02:59:12;1.60;;;1.50;;
10416;SDS011;62605;49.432;8.680;2022-08-03T03:01:40;1.52;;;1.40;;
10416;SDS011;62605;49.432;8.680;2022-08-03T03:04:07;2.70;;;1.50;;
10416;SDS011;62605;49.432;8.680;2022-08-03T03:06:39;1.98;;;1.35;;
10416;SDS011;62605;49.432;8.680;2022-08-03T03:09:06;1.27;;;1.17;;
10416;SDS011;62605;49.432;8.680;2022-08-03T03:11:35;1.15;;;1.13;;
10416;SDS011;62605;49.432;8.680;2022-08-03T03:14:04;1.17;;;1.17;;
10416;SDS011;62605;49.432;8.680;2022-08-03T03:16:32;1.33;;;1.23;;
10416;SDS011;62605;49.432;8.680;2022-08-03T03:18:59;1.48;;;1.38;;
10416;SDS011;62605;49.432;8.680;2022-08-03T03:21:29;1.67;;;1.48;;
10416;SDS011;62605;49.432;8.680;2022-08-03T03:23:57;2.47;;;1.15;;
10416;SDS011;62605;49.432;8.680;2022-08-03T03:26:25;1.60;;;1.50;;
10416;SDS011;62605;49.432;8.680;2022-08-03T03:28:53;2.55;;;1.58;;
10416;SDS011;62605;49.432;8.680;2022-08-03T03:31:20;1.55;;;1.45;;
10416;SDS011;62605;49.432;8.680;2022-08-03T03:33:48;2.80;;;1.70;;
10416;SDS011;62605;49.432;8.680;2022-08-03T03:36:15;1.60;;;1.50;;
10416;SDS011;62605;49.432;8.680;2022-08-03T03:38:45;1.67;;;1.58;;
10416;SDS011;62605;49.432;8.680;2022-08-03T03:41:12;1.55;;;1.45;;
10416;SDS011;62605;49.432;8.680;2022-08-03T03:43:39;1.80;;;1.50;;
10416;SDS011;62605;49.432;8.680;2022-08-03T03:46:06;1.65;;;1.55;;
10416;SDS011;62605;49.432;8.680;2022-08-03T03:48:33;2.25;;;1.63;;
10416;SDS011;62605;49.432;8.680;2022-08-03T03:51:01;1.60;;;1.50;;
10416;SDS011;62605;49.432;8.680;2022-08-03T03:53:28;1.60;;;1.48;;
10416;SDS011;62605;49.432;8.680;2022-08-03T03:55:57;1.67;;;1.45;;
10416;SDS011;62605;49.432;8.680;2022-08-03T03:58:24;1.55;;;1.45;;
10416;SDS011;62605;49.432;8.680;2022-08-03T04:00:51;1.60;;;1.50;;
10416;SDS011;62605;49.432;8.680;2022-08-03T04:03:18;1.70;;;1.60;;
10416;SDS011;62605;49.432;8.680;2022-08-03T04:05:45;1.90;;;1.70;;
10416;SDS011;62605;49.432;8.680;2022-08-03T04:08:30;1.55;;;1.45;;
10416;SDS011;62605;49.432;8.680;2022-08-03T04:11:17;1.60;;;1.50;;
10416;SDS011;62605;49.432;8.680;2022-08-03T04:13:48;1.80;;;1.65;;
10416;SDS011;62605;49.432;8.680;2022-08-03T04:16:18;1.77;;;1.67;;
10416;SDS011;62605;49.432;8.680;2022-08-03T04:18:50;2.83;;;1.60;;
10416;SDS011;62605;49.432;8.680;2022-08-03T04:21:20;2.03;;;1.50;;
10416;SDS011;62605;49.432;8.680;2022-08-03T04:23:50;1.50;;;1.40;;
10416;SDS011;62605;49.432;8.680;2022-08-03T04:26:21;2.70;;;1.80;;
10416;SDS011;62605;49.432;8.680;2022-08-03T04:28:54;1.90;;;1.67;;
10416;SDS011;62605;49.432;8.680;2022-08-03T04:31:22;1.75;;;1.60;;
10416;SDS011;62605;49.432;8.680;2022-08-03T04:33:50;1.88;;;1.63;;
10416;SDS011;62605;49.432;8.680;2022-08-03T04:36:20;2.38;;;1.58;;
10416;SDS011;62605;49.432;8.680;2022-08-03T04:38:52;1.50;;;1.40;;
10416;SDS011;62605;49.432;8.680;2022-08-03T04:41:26;2.53;;;1.42;;
10416;SDS011;62605;49.432;8.680;2022-08-03T04:43:54;1.58;;;1.48;;
10416;SDS011;62605;49.432;8.680;2022-08-03T04:46:24;1.60;;;1.48;;
10416;SDS011;62605;49.432;8.680;2022-08-03T04:48:53;1.80;;;1.50;;
10416;SDS011;62605;49.432;8.680;2022-08-03T04:51:21;2.15;;;1.80;;
10416;SDS011;62605;49.432;8.680;2022-08-03T04:53:49;1.70;;;1.60;;
10416;SDS011;62605;49.432;8.680;2022-08-03T04:56:16;2.17;;;1.77;;
10416;SDS011;62605;49.432;8.680;2022-08-03T04:58:45;2.25;;;1.80;;
10416;SDS011;62605;49.432;8.680;2022-08-03T05:01:12;2.58;;;1.80;;
10416;SDS011;62605;49.432;8.680;2022-08-03T05:03:39;1.48;;;1.38;;
10416;SDS011;62605;49.432;8.680;2022-08-03T05:06:06;1.98;;;1.55;;
10416;SDS011;62605;49.432;8.680;2022-08-03T05:08:34;1.80;;;1.55;;
10416;SDS011;62605;49.432;8.680;2022-08-03T05:11:01;1.63;;;1.50;;
10416;SDS011;62605;49.432;8.680;2022-08-03T05:13:28;2.20;;;1.60;;
10416;SDS011;62605;49.432;8.680;2022-08-03T05:15:56;1.58;;;1.48;;
10416;SDS011;62605;49.432;8.680;2022-08-03T05:18:23;3.60;;;1.80;;
10416;SDS011;62605;49.432;8.680;2022-08-03T05:20:50;1.73;;;1.63;;
10416;SDS011;62605;49.432;8.680;2022-08-03T05:23:17;2.58;;;1.67;;
10416;SDS011;62605;49.432;8.680;2022-08-03T05:25:44;3.13;;;1.80;;
10416;SDS011;62605;49.432;8.680;2022-08-03T05:28:12;2.65;;;2.00;;
10416;SDS011;62605;49.432;8.680;2022-08-03T05:30:38;1.73;;;1.63;;
10416;SDS011;62605;49.432;8.680;2022-08-03T05:33:07;1.90;;;1.63;;
10416;SDS011;62605;49.432;8.680;2022-08-03T05:35:35;4.32;;;1.73;;
10416;SDS011;62605;49.432;8.680;2022-08-03T05:38:03;2.38;;;1.70;;
10416;SDS011;62605;49.432;8.680;2022-08-03T05:40:30;2.50;;;1.90;;
10416;SDS011;62605;49.432;8.680;2022-08-03T05:42:57;2.00;;;1.90;;
10416;SDS011;62605;49.432;8.680;2022-08-03T05:45:25;2.63;;;2.13;;
10416;SDS011;62605;49.432;8.680;2022-08-03T05:47:52;2.10;;;1.95;;
10416;SDS011;62605;49.432;8.680;2022-08-03T05:50:20;2.70;;;2.28;;
10416;SDS011;62605;49.432;8.680;2022-08-03T05:52:48;2.47;;;2.00;;
10416;SDS011;62605;49.432;8.680;2022-08-03T05:55:15;5.15;;;2.60;;
10416;SDS011;62605;49.432;8.680;2022-08-03T05:57:43;2.13;;;1.92;;
10416;SDS011;62605;49.432;8.680;2022-08-03T06:00:12;2.13;;;1.98;;
10416;SDS011;62605;49.432;8.680;2022-08-03T06:02:40;2.67;;;2.22;;
10416;SDS011;62605;49.432;8.680;2022-08-03T06:05:07;1.95;;;1.80;;
10416;SDS011;62605;49.432;8.680;2022-08-03T06:07:36;1.75;;;1.65;;
10416;SDS011;62605;49.432;8.680;2022-08-03T06:10:04;1.88;;;1.77;;
10416;SDS011;62605;49.432;8.680;2022-08-03T06:12:33;6.15;;;1.88;;
10416;SDS011;62605;49.432;8.680;2022-08-03T06:15:00;2.25;;;1.90;;
10416;SDS011;62605;49.432;8.680;2022-08-03T06:17:40;3.20;;;2.13;;
10416;SDS011;62605;49.432;8.680;2022-08-03T06:20:12;5.07;;;2.13;;
10416;SDS011;62605;49.432;8.680;2022-08-03T06:22:43;2.65;;;2.17;;
10416;SDS011;62605;49.432;8.680;2022-08-03T06:25:10;1.75;;;1.65;;
10416;SDS011;62605;49.432;8.680;2022-08-03T06:27:38;2.70;;;2.00;;
10416;SDS011;62605;49.432;8.680;2022-08-03T06:30:05;2.42;;;1.80;;
10416;SDS011;62605;49.432;8.680;2022-08-03T06:32:34;3.35;;;2.20;;
10416;SDS011;62605;49.432;8.680;2022-08-03T06:35:02;3.97;;;1.60;;
10416;SDS011;62605;49.432;8.680;2022-08-03T06:37:30;2.45;;;1.70;;
10416;SDS011;62605;49.432;8.680;2022-08-03T06:39:58;4.18;;;1.98;;
10416;SDS011;62605;49.432;8.680;2022-08-03T06:42:25;1.88;;;1.77;;
10416;SDS011;62605;49.432;8.680;2022-08-03T06:44:52;2.90;;;2.55;;
10416;SDS011;62605;49.432;8.680;2022-08-03T06:47:19;2.40;;;2.20;;
10416;SDS011;62605;49.432;8.680;2022-08-03T06:49:46;2.10;;;2.00;;
10416;SDS011;62605;49.432;8.680;2022-08-03T06:52:13;2.00;;;1.90;;
10416;SDS011;62605;49.432;8.680;2022-08-03T06:54:40;1.90;;;1.80;;
10416;SDS011;62605;49.432;8.680;2022-08-03T06:57:09;4.00;;;2.08;;
10416;SDS011;62605;49.432;8.680;2022-08-03T06:59:37;2.15;;;1.95;;
10416;SDS011;62605;49.432;8.680;2022-08-03T07:02:04;3.13;;;2.60;;
10416;SDS011;62605;49.432;8.680;2022-08-03T07:04:31;2.75;;;2.40;;
10416;SDS011;62605;49.432;8.680;2022-08-03T07:06:58;3.70;;;2.20;;
10416;SDS011;62605;49.432;8.680;2022-08-03T07:09:25;8.70;;;2.25;;
10416;SDS011;62605;49.432;8.680;2022-08-03T07:11:52;2.03;;;1.83;;
10416;SDS011;62605;49.432;8.680;2022-08-03T07:14:22;4.00;;;2.63;;
10416;SDS011;62605;49.432;8.680;2022-08-03T07:16:49;5.25;;;2.35;;
10416;SDS011;62605;49.432;8.680;2022-08-03T07:19:17;5.18;;;2.63;;
10416;SDS011;62605;49.432;8.680;2022-08-03T07:21:44;2.28;;;2.08;;
10416;SDS011;62605;49.432;8.680;2022-08-03T07:24:11;4.45;;;2.33;;
10416;SDS011;62605;49.432;8.680;2022-08-03T07:26:38;6.85;;;1.88;;
10416;SDS011;62605;49.432;8.680;2022-08-03T07:29:06;3.85;;;1.98;;
10416;SDS011;62605;49.432;8.680;2022-08-03T07:31:34;6.43;;;2.17;;
10416;SDS011;62605;49.432;8.680;2022-08-03T07:34:01;4.53;;;2.35;;
10416;SDS011;62605;49.432;8.680;2022-08-03T07:36:28;6.00;;;2.28;;
10416;SDS011;62605;49.432;8.680;2022-08-03T07:38:56;5.72;;;2.38;;
10416;SDS011;62605;49.432;8.680;2022-08-03T07:41:23;4.28;;;2.38;;
10416;SDS011;62605;49.432;8.680;2022-08-03T07:43:50;2.70;;;1.95;;
10416;SDS011;62605;49.432;8.680;2022-08-03T07:46:17;2.90;;;2.35;;
10416;SDS011;62605;49.432;8.680;2022-08-03T07:48:46;7.53;;;2.42;;
10416;SDS011;62605;49.432;8.680;2022-08-03T07:51:13;3.03;;;2.33;;
10416;SDS011;62605;49.432;8.680;2022-08-03T07:53:40;5.28;;;2.50;;
10416;SDS011;62605;49.432;8.680;2022-08-03T07:56:07;5.80;;;2.38;;
10416;SDS011;62605;49.432;8.680;2022-08-03T07:58:34;4.13;;;2.20;;
10416;SDS011;62605;49.432;8.680;2022-08-03T08:01:02;2.78;;;2.00;;
10416;SDS011;62605;49.432;8.680;2022-08-03T08:03:29;3.42;;;2.08;;
10416;SDS011;62605;49.432;8.680;2022-08-03T08:05:58;5.35;;;1.95;;
10416;SDS011;62605;49.432;8.680;2022-08-03T08:08:25;3.00;;;2.30;;
10416;SDS011;62605;49.432;8.680;2022-08-03T08:10:52;2.25;;;1.83;;
10416;SDS011;62605;49.432;8.680;2022-08-03T08:13:19;4.65;;;2.10;;
10416;SDS011;62605;49.432;8.680;2022-08-03T08:15:46;2.72;;;1.83;;
10416;SDS011;62605;49.432;8.680;2022-08-03T08:18:13;4.97;;;2.88;;
10416;SDS011;62605;49.432;8.680;2022-08-03T08:20:41;2.38;;;1.80;;
10416;SDS011;62605;49.432;8.680;2022-08-03T08:23:10;4.95;;;2.78;;
10416;SDS011;62605;49.432;8.680;2022-08-03T08:25:37;2.65;;;2.05;;
10416;SDS011;62605;49.432;8.680;2022-08-03T08:28:04;2.63;;;2.17;;
10416;SDS011;62605;49.432;8.680;2022-08-03T08:30:32;2.40;;;1.90;;
10416;SDS011;62605;49.432;8.680;2022-08-03T08:32:59;1.90;;;1.70;;
10416;SDS011;62605;49.432;8.680;2022-08-03T08:35:26;6.90;;;3.92;;
10416;SDS011;62605;49.432;8.680;2022-08-03T08:37:54;2.00;;;1.80;;
10416;SDS011;62605;49.432;8.680;2022-08-03T08:40:22;2.08;;;1.85;;
10416;SDS011;62605;49.432;8.680;2022-08-03T08:42:49;1.83;;;1.63;;
10416;SDS011;62605;49.432;8.680;2022-08-03T08:45:17;2.25;;;1.60;;
10416;SDS011;62605;49.432;8.680;2022-08-03T08:47:45;3.38;;;2.20;;
10416;SDS011;62605;49.432;8.680;2022-08-03T08:50:16;2.60;;;2.33;;
10416;SDS011;62605;49.432;8.680;2022-08-03T08:52:45;5.93;;;2.13;;
10416;SDS011;62605;49.432;8.680;2022-08-03T08:55:14;2.17;;;1.98;;
10416;SDS011;62605;49.432;8.680;2022-08-03T08:57:48;2.75;;;1.80;;
10416;SDS011;62605;49.432;8.680;2022-08-03T09:00:17;4.15;;;1.90;;
10416;SDS011;62605;49.432;8.680;2022-08-03T09:02:45;4.40;;;2.08;;
10416;SDS011;62605;49.432;8.680;2022-08-03T09:05:13;2.03;;;1.90;;
10416;SDS011;62605;49.432;8.680;2022-08-03T09:07:41;2.88;;;1.80;;
10416;SDS011;62605;49.432;8.680;2022-08-03T09:10:09;3.45;;;2.13;;
10416;SDS011;62605;49.432;8.680;2022-08-03T09:12:37;2.05;;;1.80;;
10416;SDS011;62605;49.432;8.680;2022-08-03T09:15:21;2.30;;;2.03;;
10416;SDS011;62605;49.432;8.680;2022-08-03T09:17:50;3.25;;;1.80;;
10416;SDS011;62605;49.432;8.680;2022-08-03T09:20:20;2.63;;;2.25;;
10416;SDS011;62605;49.432;8.680;2022-08-03T09:22:50;3.97;;;1.65;;
10416;SDS011;62605;49.432;8.680;2022-08-03T09:25:26;2.88;;;2.05;;
10416;SDS011;62605;49.432;8.680;2022-08-03T09:28:04;1.85;;;1.60;;
10416;SDS011;62605;49.432;8.680;2022-08-03T09:30:35;2.88;;;2.00;;
10416;SDS011;62605;49.432;8.680;2022-08-03T09:33:04;1.80;;;1.60;;
10416;SDS011;62605;49.432;8.680;2022-08-03T09:35:38;1.70;;;1.60;;
10416;SDS011;62605;49.432;8.680;2022-08-03T09:38:12;3.53;;;1.70;;
10416;SDS011;62605;49.432;8.680;2022-08-03T09:40:41;4.25;;;1.77;;
10416;SDS011;62605;49.432;8.680;2022-08-03T09:43:09;1.83;;;1.60;;
10416;SDS011;62605;49.432;8.680;2022-08-03T09:45:39;3.22;;;1.55;;
10416;SDS011;62605;49.432;8.680;2022-08-03T09:48:25;2.63;;;2.00;;
10416;SDS011;62605;49.432;8.680;2022-08-03T09:50:54;2.55;;;2.20;;
10416;SDS011;62605;49.432;8.680;2022-08-03T09:53:23;3.22;;;1.33;;
10416;SDS011;62605;49.432;8.680;2022-08-03T09:55:52;1.88;;;1.67;;
10416;SDS011;62605;49.432;8.680;2022-08-03T09:58:21;1.70;;;1.60;;
10416;SDS011;62605;49.432;8.680;2022-08-03T10:00:54;3.75;;;2.10;;
10416;SDS011;62605;49.432;8.680;2022-08-03T10:03:23;3.10;;;1.77;;
10416;SDS011;62605;49.432;8.680;2022-08-03T10:05:52;1.70;;;1.60;;
10416;SDS011;62605;49.432;8.680;2022-08-03T10:08:20;1.90;;;1.67;;
10416;SDS011;62605;49.432;8.680;2022-08-03T10:10:48;1.80;;;1.70;;
10416;SDS011;62605;49.432;8.680;2022-08-03T10:13:18;1.67;;;1.58;;
10416;SDS011;62605;49.432;8.680;2022-08-03T10:15:46;2.72;;;1.50;;
10416;SDS011;62605;49.432;8.680;2022-08-03T10:18:15;1.80;;;1.70;;
10416;SDS011;62605;49.432;8.680;2022-08-03T10:20:51;1.70;;;1.58;;
10416;SDS011;62605;49.432;8.680;2022-08-03T10:23:18;1.50;;;1.40;;
10416;SDS011;62605;49.432;8.680;2022-08-03T10:25:47;1.70;;;1.60;;
10416;SDS011;62605;49.432;8.680;2022-08-03T10:28:18;2.13;;;1.45;;
10416;SDS011;62605;49.432;8.680;2022-08-03T10:30:47;2.47;;;1.67;;
10416;SDS011;62605;49.432;8.680;2022-08-03T10:33:18;1.33;;;1.23;;
10416;SDS011;62605;49.432;8.680;2022-08-03T10:35:47;1.70;;;1.60;;
10416;SDS011;62605;49.432;8.680;2022-08-03T10:38:19;2.47;;;1.50;;
10416;SDS011;62605;49.432;8.680;2022-08-03T10:40:49;1.50;;;1.40;;
10416;SDS011;62605;49.432;8.680;2022-08-03T10:43:20;1.50;;;1.40;;
10416;SDS011;62605;49.432;8.680;2022-08-03T10:45:51;1.92;;;1.80;;
10416;SDS011;62605;49.432;8.680;2022-08-03T10:48:19;2.17;;;1.50;;
10416;SDS011;62605;49.432;8.680;2022-08-03T10:50:47;2.65;;;1.20;;
10416;SDS011;62605;49.432;8.680;2022-08-03T10:53:15;3.03;;;1.40;;
10416;SDS011;62605;49.432;8.680;2022-08-03T10:56:00;1.90;;;1.60;;
10416;SDS011;62605;49.432;8.680;2022-08-03T10:58:45;1.45;;;1.38;;
10416;SDS011;62605;49.432;8.680;2022-08-03T11:01:15;3.78;;;1.88;;
10416;SDS011;62605;49.432;8.680;2022-08-03T11:04:17;2.60;;;1.80;;
10416;SDS011;62605;49.432;8.680;2022-08-03T11:06:46;1.45;;;1.40;;
10416;SDS011;62605;49.432;8.680;2022-08-03T11:09:14;1.60;;;1.50;;
10416;SDS011;62605;49.432;8.680;2022-08-03T11:11:44;1.65;;;1.40;;
10416;SDS011;62605;49.432;8.680;2022-08-03T11:14:14;1.63;;;1.50;;
10416;SDS011;62605;49.432;8.680;2022-08-03T11:16:43;1.65;;;1.55;;
10416;SDS011;62605;49.432;8.680;2022-08-03T11:19:14;2.92;;;1.50;;
10416;SDS011;62605;49.432;8.680;2022-08-03T11:21:56;1.85;;;1.60;;
10416;SDS011;62605;49.432;8.680;2022-08-03T11:27:22;1.58;;;1.48;;
10416;SDS011;62605;49.432;8.680;2022-08-03T11:29:56;1.52;;;1.30;;
10416;SDS011;62605;49.432;8.680;2022-08-03T11:35:28;2.08;;;1.30;;
10416;SDS011;62605;49.432;8.680;2022-08-03T11:38:03;1.88;;;1.42;;
10416;SDS011;62605;49.432;8.680;2022-08-03T11:40:33;1.40;;;1.30;;
10416;SDS011;62605;49.432;8.680;2022-08-03T11:43:03;1.60;;;1.50;;
10416;SDS011;62605;49.432;8.680;2022-08-03T11:45:35;2.05;;;1.50;;
10416;SDS011;62605;49.432;8.680;2022-08-03T11:48:14;1.42;;;1.33;;
10416;SDS011;62605;49.432;8.680;2022-08-03T11:50:47;4.40;;;1.60;;
10416;SDS011;62605;49.432;8.680;2022-08-03T11:53:17;1.33;;;1.23;;
10416;SDS011;62605;49.432;8.680;2022-08-03T11:55:46;1.58;;;1.48;;
10416;SDS011;62605;49.432;8.680;2022-08-03T11:58:16;1.35;;;1.25;;
10416;SDS011;62605;49.432;8.680;2022-08-03T12:00:44;1.60;;;1.50;;
10416;SDS011;62605;49.432;8.680;2022-08-03T12:03:13;1.23;;;1.17;;
10416;SDS011;62605;49.432;8.680;2022-08-03T12:05:47;1.77;;;1.40;;
10416;SDS011;62605;49.432;8.680;2022-08-03T12:08:16;2.28;;;1.50;;
10416;SDS011;62605;49.432;8.680;2022-08-03T12:10:47;1.40;;;1.30;;
10416;SDS011;62605;49.432;8.680;2022-08-03T12:13:16;1.20;;;1.20;;
10416;SDS011;62605;49.432;8.680;2022-08-03T12:15:49;3.55;;;1.60;;
10416;SDS011;62605;49.432;8.680;2022-08-03T12:18:17;1.40;;;1.30;;
10416;SDS011;62605;49.432;8.680;2022-08-03T12:20:48;1.40;;;1.30;;
10416;SDS011;62605;49.432;8.680;2022-08-03T12:23:15;1.83;;;1.38;;
10416;SDS011;62605;49.432;8.680;2022-08-03T12:25:43;1.40;;;1.30;;
10416;SDS011;62605;49.432;8.680;2022-08-03T12:28:12;1.60;;;1.50;;
10416;SDS011;62605;49.432;8.680;2022-08-03T12:30:46;1.80;;;1.67;;
10416;SDS011;62605;49.432;8.680;2022-08-03T12:33:29;1.83;;;1.30;;
10416;SDS011;62605;49.432;8.680;2022-08-03T12:36:16;2.85;;;1.20;;
10416;SDS011;62605;49.432;8.680;2022-08-03T12:38:52;1.83;;;1.50;;
10416;SDS011;62605;49.432;8.680;2022-08-03T12:41:26;1.60;;;1.50;;
10416;SDS011;62605;49.432;8.680;2022-08-03T12:43:55;1.50;;;1.40;;
10416;SDS011;62605;49.432;8.680;2022-08-03T12:46:28;1.73;;;1.63;;
10416;SDS011;62605;49.432;8.680;2022-08-03T12:48:56;3.55;;;1.60;;
10416;SDS011;62605;49.432;8.680;2022-08-03T12:51:26;1.27;;;1.27;;
10416;SDS011;62605;49.432;8.680;2022-08-03T12:53:54;1.20;;;1.20;;
10416;SDS011;62605;49.432;8.680;2022-08-03T12:56:22;1.63;;;1.52;;
10416;SDS011;62605;49.432;8.680;2022-08-03T12:58:50;1.40;;;1.30;;
10416;SDS011;62605;49.432;8.680;2022-08-03T13:01:17;1.50;;;1.40;;
10416;SDS011;62605;49.432;8.680;2022-08-03T13:03:48;1.60;;;1.50;;
10416;SDS011;62605;49.432;8.680;2022-08-03T13:06:20;1.40;;;1.40;;
10416;SDS011;62605;49.432;8.680;2022-08-03T13:09:05;2.70;;;1.70;;
10416;SDS011;62605;49.432;8.680;2022-08-03T13:11:36;2.25;;;1.52;;
10416;SDS011;62605;49.432;8.680;2022-08-03T13:14:03;1.48;;;1.38;;
10416;SDS011;62605;49.432;8.680;2022-08-03T13:16:30;1.52;;;1.42;;
10416;SDS011;62605;49.432;8.680;2022-08-03T13:18:57;2.08;;;1.55;;
10416;SDS011;62605;49.432;8.680;2022-08-03T13:21:24;1.50;;;1.40;;
10416;SDS011;62605;49.432;8.680;2022-08-03T13:23:52;5.70;;;1.55;;
10416;SDS011;62605;49.432;8.680;2022-08-03T13:26:21;1.50;;;1.40;;
10416;SDS011;62605;49.432;8.680;2022-08-03T13:28:48;2.83;;;1.67;;
10416;SDS011;62605;49.432;8.680;2022-08-03T13:31:15;2.97;;;1.65;;
10416;SDS011;62605;49.432;8.680;2022-08-03T13:33:42;2.13;;;1.60;;
10416;SDS011;62605;49.432;8.680;2022-08-03T13:36:10;2.22;;;1.60;;
10416;SDS011;62605;49.432;8.680;2022-08-03T13:38:37;1.65;;;1.55;;
10416;SDS011;62605;49.432;8.680;2022-08-03T13:41:04;1.70;;;1.60;;
10416;SDS011;62605;49.432;8.680;2022-08-03T13:43:33;1.88;;;1.77;;
10416;SDS011;62605;49.432;8.680;2022-08-03T13:46:00;1.65;;;1.55;;
10416;SDS011;62605;49.432;8.680;2022-08-03T13:48:27;1.83;;;1.73;;
10416;SDS011;62605;49.432;8.680;2022-08-03T13:50:54;1.50;;;1.40;;
10416;SDS011;62605;49.432;8.680;2022-08-03T13:53:21;2.70;;;1.55;;
10416;SDS011;62605;49.432;8.680;2022-08-03T13:55:48;1.65;;;1.55;;
10416;SDS011;62605;49.432;8.680;2022-08-03T13:58:15;4.25;;;1.50;;
10416;SDS011;62605;49.432;8.680;2022-08-03T14:00:43;1.60;;;1.50;;
10416;SDS011;62605;49.432;8.680;2022-08-03T14:03:10;1.63;;;1.52;;
10416;SDS011;62605;49.432;8.680;2022-08-03T14:05:37;1.58;;;1.40;;
10416;SDS011;62605;49.432;8.680;2022-08-03T14:08:05;2.47;;;1.55;;
10416;SDS011;62605;49.432;8.680;2022-08-03T14:10:33;1.25;;;1.25;;
10416;SDS011;62605;49.432;8.680;2022-08-03T14:13:01;2.17;;;2.08;;
10416;SDS011;62605;49.432;8.680;2022-08-03T14:15:29;2.65;;;1.85;;
10416;SDS011;62605;49.432;8.680;2022-08-03T14:17:57;1.73;;;1.50;;
10416;SDS011;62605;49.432;8.680;2022-08-03T14:20:24;5.82;;;1.55;;
10416;SDS011;62605;49.432;8.680;2022-08-03T14:22:53;1.60;;;1.50;;
10416;SDS011;62605;49.432;8.680;2022-08-03T14:25:20;1.60;;;1.50;;
10416;SDS011;62605;49.432;8.680;2022-08-03T14:27:48;2.40;;;1.55;;
10416;SDS011;62605;49.432;8.680;2022-08-03T14:30:15;1.58;;;1.48;;
10416;SDS011;62605;49.432;8.680;2022-08-03T14:32:43;2.38;;;1.58;;
10416;SDS011;62605;49.432;8.680;2022-08-03T14:35:11;1.40;;;1.30;;
10416;SDS011;62605;49.432;8.680;2022-08-03T14:37:39;1.50;;;1.40;;
10416;SDS011;62605;49.432;8.680;2022-08-03T14:40:06;1.55;;;1.45;;
10416;SDS011;62605;49.432;8.680;2022-08-03T14:42:33;1.48;;;1.30;;
10416;SDS011;62605;49.432;8.680;2022-08-03T14:45:00;1.50;;;1.40;;
10416;SDS011;62605;49.432;8.680;2022-08-03T14:47:29;1.77;;;1.67;;
10416;SDS011;62605;49.432;8.680;2022-08-03T14:49:57;1.60;;;1.50;;
10416;SDS011;62605;49.432;8.680;2022-08-03T14:52:26;1.42;;;1.33;;
10416;SDS011;62605;49.432;8.680;2022-08-03T14:54:53;1.63;;;1.52;;
10416;SDS011;62605;49.432;8.680;2022-08-03T14:57:20;1.60;;;1.50;;
10416;SDS011;62605;49.432;8.680;2022-08-03T14:59:47;1.50;;;1.40;;
10416;SDS011;62605;49.432;8.680;2022-08-03T15:02:14;1.50;;;1.40;;
10416;SDS011;62605;49.432;8.680;2022-08-03T15:04:41;2.00;;;1.80;;
10416;SDS011;62605;49.432;8.680;2022-08-03T15:07:08;1.23;;;1.20;;
10416;SDS011;62605;49.432;8.680;2022-08-03T15:09:40;1.33;;;1.30;;